• Join FlightAware (Why Join?)
  • Login
  • US Flag 
05:15AM EDT


 

Airport Tracker/Info


-or-


 

Live Flight TrackerFlight Track Log ✈ ASQ5291 ✈ 05-May-2013 ✈ KATL - KMGM

Flight Track Log - Related Links

Times and Time Zones

All times are in EDT time to prevent confusion due to time zone crossing. See the ASQ5291 flight status page for this flight to view local times or setup timezone preferences in your user account.

Time Position Orientation Groundspeed Altitude Reporting Facility
EDT Latitude Longitude Course Direction KTS MPH feet Rate Location/Type
10:23PM 33.6500 -84.4500 284° West 152 175 2,300  Level Atlanta TRACON
10:25PM 33.6667 -84.5333 284° West 249 287 4,400 2,460 Climbing Atlanta TRACON
10:26PM 33.6833 -84.6333 281° West 266 306 8,000 1,920 Climbing Atlanta TRACON
10:27PM 33.7042 -84.8031 278° West 288 331 10,200 1,260 Climbing Atlanta Center
10:28PM 33.7222 -84.9056 282° West 303 349 11,600 1,500 Climbing Atlanta Center
10:29PM 33.7361 -85.0231 278° West 339 390 13,300 1,800 Climbing Atlanta Center
10:30PM 33.7497 -85.1431 278° West 363 418 15,300 1,320 Climbing Atlanta Center
10:31PM 33.7172 -85.2550 251° West 361 415 16,000 300 Climbing Atlanta Center
10:32PM 33.6517 -85.3539 231° Southwest 358 412 16,000  Level Atlanta Center
10:33PM 33.5881 -85.4478 231° Southwest 371 427 16,000  Level Atlanta Center
10:34PM 33.5242 -85.5464 232° Southwest 371 427 16,000  Level Atlanta Center
10:35PM 33.4689 -85.6300 232° Southwest 371 427 16,000  Level Atlanta Center
10:36PM 33.3967 -85.7108 223° Southwest 371 427 16,000  Level Atlanta Center
10:37PM 33.2958 -85.7736 207° Southwest 365 420 16,000  Level Atlanta Center
10:38PM 33.2053 -85.8289 207° Southwest 371 427 16,000  Level Atlanta Center
10:39PM 33.1125 -85.8864 207° Southwest 371 427 16,000  Level Atlanta Center
10:40PM 33.0219 -85.9439 208° Southwest 371 427 16,000 -720 Level Atlanta Center
10:41PM 32.9311 -86.0039 209° Southwest 371 427 14,600 -1,620 Descending Atlanta Center
10:42PM 32.8406 -86.0586 207° Southwest 371 427 12,800 -1,800 Descending Atlanta Center
10:43PM 32.7519 -86.1161 209° Southwest 371 427 11,100 -1,140 Descending Atlanta Center
10:44PM 32.6739 -86.1636 207° Southwest 348 400 10,600 -1,260 Descending Atlanta Center
10:45PM 32.6064 -86.2064 208° Southwest 308 354 8,600 -2,100 Descending Atlanta Center
10:46PM 32.5350 -86.2317 197° South 280 322 6,400 -2,160 Descending Atlanta Center
10:47PM 32.4558 -86.2222 174° South 274 315 4,300 -1,800 Descending Atlanta Center
10:48PM 32.3808 -86.2156 176° South 279 321 2,800 -1,020 Descending Atlanta Center
10:49PM 32.3239 -86.2436 203° Southwest 228 262 2,300 -480 Descending Atlanta Center
10:50PM 32.2919 -86.2797 224° Southwest 203 234 1,900 -420 Descending Atlanta Center
10:52PM 32.3000 -86.3833 209° Southwest  Level FlightAware Approximate
10:59PM 32.3006 -86.3940 209° Southwest  Level Estimated
11:00PM 32.3006 -86.3940 209° Southwest  Level Estimated